Clarinda, IA

9:08 PM CDT on September 26, 2016 (GMT -0500)
Schenck

Weather History for KICL - January, 2014

Change the Weather History Date:

Thursday, January 23, 2014

  Actual Average Record
Temperature  
Mean Temperature 5 °F -  
Max Temperature 14 °F 33 °F 60 °F (2004)
Min Temperature -4 °F 14 °F -13 °F (2003)
Degree Days  
Heating Degree Days 60    
Moisture  
Dew Point -9 °F    
Average Humidity 61    
Maximum Humidity 78    
Minimum Humidity 38    
Precipitation  
Precipitation 0.00 in - - ()
Sea Level Pressure  
Sea Level Pressure 30.72 in    
Wind  
Wind Speed 13 mph (NW)    
Max Wind Speed 18 mph    
Max Gust Speed 23 mph    
Visibility 10 miles    
Events      
Averages and records for this station are not official NWS values.
T = Trace of Precipitation, MM = Missing Value Source: NWS Daily Summary

Daily Weather History Graph

Daily Weather History Graph

Search for Another Location

Airport or City:

Trip Planner

Search our weather history database for the weather conditions in past years. The results will help you decide how hot, cold, wet, or windy it might be!

Date:

Astronomy

Jan. 23, 2014 Rise Set
Actual Time 7:37 AM CST 5:26 PM CST
Civil Twilight 7:07 AM CST 5:56 PM CST
Nautical Twilight 6:34 AM CST 6:29 PM CST
Astronomical Twilight 6:02 AM CST 7:02 PM CST
Moon 12:01 AM CST (1/23) 11:10 AM CST (1/23)
Length of Visible Light 10h 48m
Length of Day
9h 49m
Waning Gibbous, 55% of the Moon is Illuminated
Jan 23
Waning Gibbous
Jan 23
Last Quarter
Jan 30
New
Feb 6
First Quarter
Feb 14
Full

Hourly Weather History & Observations

Time (CST) Temp. Windchill Dew Point Humidity Pressure Visibility Wind Dir Wind Speed Gust Speed Precip Events Conditions
12:15 AM -0.4 °F -21.7 °F -11.2 °F 60% 30.59 in 10.0 mi NNW 18.4 mph - N/A   Clear
12:35 AM -0.4 °F -20.5 °F -11.2 °F 60% 30.59 in 10.0 mi NNW 16.1 mph - N/A   Clear
12:55 AM -0.4 °F -19.9 °F -11.2 °F 60% 30.60 in 10.0 mi NNW 15.0 mph 21.9 mph N/A   Clear
1:15 AM -0.4 °F -19.9 °F -11.2 °F 60% 30.60 in 10.0 mi NNW 15.0 mph - N/A   Clear
1:35 AM -0.4 °F -17.6 °F -11.2 °F 60% 30.62 in 10.0 mi NNW 11.5 mph 19.6 mph N/A   Clear
1:55 AM -0.4 °F -19.2 °F -11.2 °F 60% 30.63 in 10.0 mi NNW 13.8 mph 21.9 mph N/A   Clear
2:15 AM -0.4 °F -19.2 °F -11.2 °F 60% 30.64 in 10.0 mi NNW 13.8 mph - N/A   Clear
2:35 AM -2.2 °F -21.5 °F -11.2 °F 66% 30.64 in 10.0 mi NNW 13.8 mph 19.6 mph N/A   Clear
2:55 AM -2.2 °F -19.9 °F -11.2 °F 66% 30.65 in 10.0 mi NNW 11.5 mph 23.0 mph N/A   Clear
3:15 AM -2.2 °F -19.9 °F -11.2 °F 66% 30.66 in 10.0 mi NNW 11.5 mph 19.6 mph N/A   Clear
3:35 AM -2.2 °F -22.2 °F -11.2 °F 66% 30.66 in 10.0 mi NNW 15.0 mph - N/A   Clear
3:55 AM -2.2 °F -22.2 °F -11.2 °F 66% 30.66 in 10.0 mi NNW 15.0 mph 20.7 mph N/A   Clear
4:15 AM -2.2 °F -22.2 °F -11.2 °F 66% 30.67 in 10.0 mi NNW 15.0 mph - N/A   Clear
4:35 AM -4.0 °F -22.1 °F -11.2 °F 71% 30.68 in 10.0 mi NNW 11.5 mph 19.6 mph N/A   Clear
4:55 AM -4.0 °F -21.2 °F -11.2 °F 71% 30.70 in 10.0 mi NNW 10.4 mph - N/A   Clear
5:15 AM -4.0 °F -23.7 °F -11.2 °F 71% 30.70 in 10.0 mi NNW 13.8 mph - N/A   Clear
5:35 AM -4.0 °F -23.0 °F -11.2 °F 71% 30.71 in 10.0 mi NNW 12.7 mph - N/A   Clear
5:55 AM -4.0 °F -23.0 °F -11.2 °F 71% 30.72 in 10.0 mi NNW 12.7 mph 18.4 mph N/A   Clear
6:15 AM -4.0 °F -22.1 °F -11.2 °F 71% 30.73 in 10.0 mi NNW 11.5 mph 18.4 mph N/A   Clear
6:35 AM -4.0 °F -21.2 °F -11.2 °F 71% 30.75 in 10.0 mi NNW 10.4 mph 17.3 mph N/A   Clear
6:55 AM -4.0 °F -23.0 °F -11.2 °F 71% 30.75 in 10.0 mi NNW 12.7 mph 20.7 mph N/A   Clear
7:15 AM -4.0 °F -22.1 °F -11.2 °F 71% 30.76 in 10.0 mi NNW 11.5 mph 17.3 mph N/A   Clear
7:35 AM -4.0 °F -25.8 °F -11.2 °F 71% 30.76 in 10.0 mi NNW 17.3 mph - N/A   Clear
7:55 AM -4.0 °F -23.7 °F -11.2 °F 71% 30.77 in 10.0 mi NNW 13.8 mph - N/A   Clear
8:15 AM -4.0 °F -23.7 °F -11.2 °F 71% 30.78 in 10.0 mi NNW 13.8 mph 21.9 mph N/A   Clear
8:35 AM -4.0 °F -23.0 °F -11.2 °F 71% 30.80 in 10.0 mi NNW 12.7 mph 20.7 mph N/A   Clear
8:55 AM -2.2 °F -23.5 °F -11.2 °F 66% 30.80 in 10.0 mi NNW 17.3 mph 23.0 mph N/A   Clear
9:15 AM -2.2 °F -22.9 °F -11.2 °F 66% 30.81 in 10.0 mi NNW 16.1 mph - N/A   Clear
9:35 AM -0.4 °F -21.2 °F -11.2 °F 60% 30.82 in 10.0 mi NNW 17.3 mph - N/A   Clear
9:55 AM -0.4 °F -20.5 °F -9.4 °F 66% 30.83 in 10.0 mi NW 16.1 mph - N/A   Clear
10:15 AM -0.4 °F -17.6 °F -9.4 °F 66% 30.83 in 10.0 mi NNW 11.5 mph 17.3 mph N/A   Clear
10:35 AM 1.4 °F -16.1 °F -9.4 °F 61% 30.84 in 10.0 mi NW 12.7 mph 19.6 mph N/A   Partly Cloudy
10:55 AM 3.2 °F -15.3 °F -9.4 °F 56% 30.84 in 10.0 mi NNW 15.0 mph - N/A   Partly Cloudy
11:15 AM 3.2 °F -13.9 °F -7.6 °F 61% 30.84 in 10.0 mi NW 12.7 mph - N/A   Clear
11:35 AM 5.0 °F -10.8 °F -7.6 °F 56% 30.83 in 10.0 mi NNW 11.5 mph 18.4 mph N/A   Clear
11:55 AM 6.8 °F -10.0 °F -7.6 °F 52% 30.83 in 10.0 mi NW 13.8 mph - N/A   Clear
12:15 PM 6.8 °F -10.0 °F -7.6 °F 52% 30.81 in 10.0 mi NW 13.8 mph 20.7 mph N/A   Clear
12:35 PM 8.6 °F -8.9 °F -7.6 °F 48% 30.80 in 10.0 mi NNW 16.1 mph - N/A   Clear
12:55 PM 8.6 °F -8.3 °F -7.6 °F 48% 30.79 in 10.0 mi NW 15.0 mph 21.9 mph N/A   Clear
1:15 PM 8.6 °F -4.7 °F -7.6 °F 48% 30.78 in 10.0 mi NW 9.2 mph 17.3 mph N/A   Clear
1:35 PM 10.4 °F -4.1 °F -5.8 °F 48% 30.77 in 10.0 mi NNW 11.5 mph 20.7 mph N/A   Clear
1:55 PM 12.2 °F -2.5 °F -5.8 °F 45% 30.76 in 10.0 mi NNW 12.7 mph - N/A   Clear
2:15 PM 12.2 °F -2.5 °F -5.8 °F 45% 30.76 in 10.0 mi WNW 12.7 mph - N/A   Clear
2:35 PM 12.2 °F -3.1 °F -7.6 °F 41% 30.76 in 10.0 mi NW 13.8 mph 19.6 mph N/A   Clear
2:55 PM 12.2 °F 0.7 °F -5.8 °F 45% 30.76 in 10.0 mi WNW 8.1 mph 16.1 mph N/A   Clear
3:15 PM 12.2 °F -2.5 °F -5.8 °F 45% 30.76 in 10.0 mi NW 12.7 mph - N/A   Clear
3:35 PM 12.2 °F -1.8 °F -7.6 °F 41% 30.76 in 10.0 mi WNW 11.5 mph - N/A   Clear
3:55 PM 12.2 °F -1.8 °F -7.6 °F 41% 30.75 in 10.0 mi WNW 11.5 mph - N/A   Clear
4:15 PM 14.0 °F 0.5 °F -7.6 °F 38% 30.75 in 10.0 mi NW 11.5 mph - N/A   Clear
4:35 PM 12.2 °F -0.2 °F -7.6 °F 41% 30.74 in 10.0 mi West 9.2 mph - N/A   Clear
4:55 PM 12.2 °F 1.7 °F -7.6 °F 41% 30.74 in 10.0 mi WNW 6.9 mph - N/A   Clear
5:15 PM 12.2 °F 1.7 °F -7.6 °F 41% 30.74 in 10.0 mi WNW 6.9 mph - N/A   Clear
5:35 PM 10.4 °F 2.2 °F -7.6 °F 44% 30.74 in 10.0 mi West 4.6 mph - N/A   Clear
5:55 PM 8.6 °F - -7.6 °F 48% 30.74 in 10.0 mi Calm Calm - N/A   Clear
6:15 PM 3.2 °F -4.2 °F -7.6 °F 61% 30.73 in 10.0 mi SSW 3.5 mph - N/A   Clear
6:35 PM 3.2 °F -6.2 °F -7.6 °F 61% 30.72 in 10.0 mi SSW 4.6 mph - N/A   Clear
6:55 PM 1.4 °F -6.2 °F -7.6 °F 66% 30.71 in 7.0 mi SW 3.5 mph - N/A   Clear
7:15 PM 3.2 °F -6.2 °F -7.6 °F 61% 30.71 in 10.0 mi SSW 4.6 mph - N/A   Clear
7:35 PM 3.2 °F - -7.6 °F 61% 30.71 in 10.0 mi Calm Calm - N/A   Clear
7:55 PM 1.4 °F - -7.6 °F 66% 30.70 in 10.0 mi Calm Calm - N/A   Clear
8:35 PM -0.4 °F -8.3 °F -7.6 °F 72% 30.69 in 10.0 mi SSW 3.5 mph - N/A   Clear
8:55 PM -0.4 °F -8.3 °F -7.6 °F 72% 30.67 in 10.0 mi SSW 3.5 mph - N/A   Clear
9:15 PM -0.4 °F -12.0 °F -7.6 °F 72% 30.66 in 9.0 mi SSW 5.8 mph - N/A   Clear
9:55 PM -2.2 °F -14.2 °F -7.6 °F 78% 30.63 in 10.0 mi SSW 5.8 mph - N/A   Clear
10:15 PM -0.4 °F -10.4 °F -7.6 °F 72% 30.61 in 10.0 mi South 4.6 mph - N/A   Clear
10:35 PM -0.4 °F -13.4 °F -7.6 °F 72% 30.60 in 10.0 mi South 6.9 mph - N/A   Clear
10:55 PM 3.2 °F -9.1 °F -5.8 °F 66% 30.59 in 10.0 mi South 6.9 mph - N/A   Clear
11:15 PM 3.2 °F -9.1 °F -4.0 °F 72% 30.57 in 10.0 mi South 6.9 mph - N/A   Clear
11:35 PM 3.2 °F -9.1 °F -4.0 °F 72% 30.55 in 10.0 mi South 6.9 mph - N/A   Clear
11:55 PM 3.2 °F -10.3 °F -4.0 °F 72% 30.54 in 10.0 mi South 8.1 mph - N/A   Clear